Time;durP1;ratioP1;P1;durP2;ratioP2;P2;SDS_P1;SDS_P2;PMS_P1;PMS_P2;Temp;Humidity;BMP_temperature;BMP_pressure;BME280_temperature;BME280_humidity;BME280_pressure;Samples;Min_cycle;Max_cycle;Signal;HPM_P1;HPM_P2
2022/06/01 00:01:44;;;;;;;3.45;3.25;;;19.30;57.00;;;;;;5073426;28;20284;-79
2022/06/01 00:04:10;;;;;;;4.13;3.83;;;19.30;57.20;;;;;;5078681;28;20180;-79
2022/06/01 00:06:36;;;;;;;3.15;2.95;;;19.20;57.20;;;;;;5076895;28;20205;-78
2022/06/01 00:09:02;;;;;;;3.97;3.67;;;19.20;57.30;;;;;;5077315;28;20269;-77
2022/06/01 00:11:28;;;;;;;5.38;3.55;;;19.10;58.60;;;;;;5085481;28;20216;-80
2022/06/01 00:13:54;;;;;;;3.92;3.60;;;19.10;59.00;;;;;;5081631;28;20188;-80
2022/06/01 00:16:21;;;;;;;3.60;3.30;;;19.10;58.30;;;;;;5057464;28;20199;-80
2022/06/01 00:18:47;;;;;;;3.60;3.40;;;19.10;58.00;;;;;;5076870;28;20180;-80
2022/06/01 00:21:12;;;;;;;4.10;3.70;;;19.10;58.30;;;;;;5072311;28;20291;-78
2022/06/01 00:23:38;;;;;;;3.92;3.58;;;19.00;58.70;;;;;;5076228;28;20642;-80
2022/06/01 00:26:05;;;;;;;4.28;3.88;;;19.00;58.70;;;;;;5076900;28;20208;-76
2022/06/01 00:28:31;;;;;;;3.78;3.47;;;18.90;59.20;;;;;;5088143;28;20184;-79
2022/06/01 00:30:57;;;;;;;4.15;3.53;;;18.90;58.50;;;;;;5088036;28;20254;-77
2022/06/01 00:33:22;;;;;;;4.07;3.67;;;18.90;58.70;;;;;;5085649;28;20187;-77
2022/06/01 00:35:48;;;;;;;3.70;3.40;;;19.00;57.70;;;;;;5079183;28;20192;-80
2022/06/01 00:38:14;;;;;;;3.58;3.28;;;18.80;58.20;;;;;;5077019;28;20184;-79
2022/06/01 00:40:40;;;;;;;5.25;3.88;;;18.80;58.00;;;;;;5070238;28;20247;-80
2022/06/01 00:43:21;;;;;;;3.67;3.38;;;18.80;58.80;;;;;;5074418;28;20808;-80
2022/06/01 00:45:47;;;;;;;4.13;3.55;;;18.70;58.80;;;;;;5073009;28;20176;-78
2022/06/01 00:48:13;;;;;;;3.80;3.50;;;18.70;58.80;;;;;;5078220;28;20179;-79
2022/06/01 00:50:41;;;;;;;4.07;3.45;;;18.70;58.70;;;;;;5081697;28;20230;-80
2022/06/01 00:53:13;;;;;;;3.83;3.53;;;18.80;59.20;;;;;;5063069;28;20199;-80
2022/06/01 00:55:50;;;;;;;3.55;3.35;;;18.70;59.50;;;;;;5076543;28;20194;-79
2022/06/01 00:58:22;;;;;;;3.67;3.38;;;18.70;59.50;;;;;;5069469;28;20527;-80
2022/06/01 01:00:50;;;;;;;3.70;3.40;;;18.60;60.00;;;;;;5077293;28;20243;-82
2022/06/01 01:03:19;;;;;;;6.15;3.75;;;18.60;59.60;;;;;;5073993;28;20181;-79
2022/06/01 01:06:09;;;;;;;3.88;3.50;;;18.50;59.60;;;;;;5073850;28;20192;-79
2022/06/01 01:08:35;;;;;;;4.00;3.70;;;18.40;59.70;;;;;;5072154;28;20252;-80
2022/06/01 01:11:00;;;;;;;3.80;3.40;;;18.40;60.40;;;;;;5073181;28;20215;-80
2022/06/01 01:13:26;;;;;;;3.67;3.33;;;18.40;60.10;;;;;;5057548;28;20213;-80
2022/06/01 01:15:54;;;;;;;3.63;3.33;;;18.30;60.10;;;;;;5070364;28;20192;-80
2022/06/01 01:18:28;;;;;;;4.13;3.80;;;18.30;60.00;;;;;;5073966;28;20253;-81
2022/06/01 01:21:01;;;;;;;3.70;3.40;;;18.30;60.00;;;;;;5077327;28;20219;-80
2022/06/01 01:23:40;;;;;;;3.67;3.40;;;18.30;59.90;;;;;;5073752;28;20209;-80
2022/06/01 01:26:06;;;;;;;3.88;3.50;;;18.20;60.40;;;;;;5076501;28;20194;-78
2022/06/01 01:28:33;;;;;;;4.00;3.60;;;18.10;60.40;;;;;;5074735;28;20198;-80
2022/06/01 01:31:12;;;;;;;4.00;3.42;;;18.10;60.80;;;;;;5071839;28;20227;-79
2022/06/01 01:33:38;;;;;;;3.45;3.25;;;17.90;61.40;;;;;;5070497;28;20652;-80
2022/06/01 01:36:10;;;;;;;3.92;3.63;;;17.90;61.50;;;;;;5076198;28;20199;-80
2022/06/01 01:39:09;;;;;;;3.83;3.53;;;17.90;61.00;;;;;;5072308;28;20719;-81
2022/06/01 01:41:38;;;;;;;3.70;3.22;;;17.80;61.30;;;;;;5081840;28;20824;-80
2022/06/01 01:44:31;;;;;;;5.68;3.70;;;17.80;61.20;;;;;;5076367;28;20297;-80
2022/06/01 01:46:58;;;;;;;3.55;3.25;;;17.80;61.20;;;;;;5077172;28;20239;-80
2022/06/01 01:49:30;;;;;;;3.80;3.50;;;17.80;61.30;;;;;;5082287;28;20186;-79
2022/06/01 01:51:59;;;;;;;4.70;3.92;;;17.90;60.90;;;;;;5079350;28;20217;-81
2022/06/01 01:54:41;;;;;;;4.53;4.15;;;17.80;60.90;;;;;;5079052;28;20351;-81
2022/06/01 01:57:31;;;;;;;3.83;3.50;;;17.80;61.40;;;;;;5065004;28;20221;-79
2022/06/01 02:00:07;;;;;;;3.60;3.30;;;17.70;61.60;;;;;;5069344;28;20258;-81
2022/06/01 02:02:51;;;;;;;3.30;3.10;;;17.70;61.60;;;;;;5074046;28;20186;-77
2022/06/01 02:08:19;;;;;;;3.70;3.40;;;17.60;61.80;;;;;;5079649;28;20300;-80
2022/06/01 02:13:31;;;;;;;3.38;3.08;;;17.50;62.00;;;;;;5076066;28;20873;-79
2022/06/01 02:15:59;;;;;;;3.88;3.45;;;17.50;61.50;;;;;;5056007;28;20222;-79
2022/06/01 02:18:31;;;;;;;3.58;3.38;;;17.60;61.20;;;;;;5072781;28;20654;-80
2022/06/01 02:21:09;;;;;;;3.80;3.50;;;17.60;61.10;;;;;;5081035;28;20225;-80
2022/06/01 02:23:35;;;;;;;3.90;3.60;;;17.60;61.10;;;;;;5077390;28;20205;-80
2022/06/01 02:26:02;;;;;;;3.70;3.30;;;17.60;61.00;;;;;;5075905;28;20208;-80
2022/06/01 02:28:29;;;;;;;4.28;3.78;;;17.50;61.30;;;;;;5074466;28;20198;-79
2022/06/01 02:30:57;;;;;;;3.05;2.85;;;17.40;62.10;;;;;;5073441;28;20210;-79
2022/06/01 02:33:27;;;;;;;3.80;3.50;;;17.30;62.20;;;;;;5073763;28;20187;-80
2022/06/01 02:35:58;;;;;;;3.63;3.33;;;17.30;62.20;;;;;;5055784;28;20266;-79
2022/06/01 02:38:31;;;;;;;3.75;3.45;;;17.20;62.00;;;;;;5075437;28;20195;-79
2022/06/01 02:40:59;;;;;;;4.07;3.67;;;17.30;61.40;;;;;;5056987;28;20718;-82
2022/06/01 02:43:26;;;;;;;3.72;3.42;;;17.30;60.90;;;;;;5075037;28;20602;-78
2022/06/01 02:45:52;;;;;;;4.22;3.63;;;17.30;60.90;;;;;;5076411;28;20273;-82
2022/06/01 02:48:19;;;;;;;4.33;3.70;;;17.20;61.40;;;;;;5072896;28;20216;-82
2022/06/01 02:50:45;;;;;;;4.00;3.70;;;17.20;61.40;;;;;;5081608;28;20201;-80
2022/06/01 02:53:11;;;;;;;4.38;4.00;;;17.20;61.10;;;;;;5056428;28;20202;-80
2022/06/01 02:55:37;;;;;;;3.47;3.17;;;17.20;61.30;;;;;;5073276;28;20206;-78
2022/06/01 02:58:03;;;;;;;3.38;3.17;;;17.10;61.20;;;;;;5073790;28;20220;-81
2022/06/01 03:00:37;;;;;;;4.13;3.50;;;17.10;61.00;;;;;;5081751;28;20238;-80
2022/06/01 03:03:04;;;;;;;3.60;3.30;;;17.10;60.70;;;;;;5083494;28;20193;-79
2022/06/01 03:05:34;;;;;;;3.60;3.40;;;17.10;61.10;;;;;;5078438;28;20188;-79
2022/06/01 03:08:00;;;;;;;4.33;3.43;;;17.10;61.20;;;;;;5073568;28;20195;-80
2022/06/01 03:10:27;;;;;;;4.00;3.70;;;16.90;61.80;;;;;;5056553;28;20627;-80
2022/06/01 03:12:53;;;;;;;5.20;3.23;;;16.70;63.10;;;;;;5075137;28;20189;-79
2022/06/01 03:15:21;;;;;;;5.17;3.70;;;16.50;63.70;;;;;;5074212;28;20214;-79
2022/06/01 03:17:47;;;;;;;3.47;3.17;;;16.20;64.90;;;;;;5074258;28;20236;-80
2022/06/01 03:20:15;;;;;;;3.47;3.17;;;16.20;65.20;;;;;;5072524;28;20306;-78
2022/06/01 03:22:43;;;;;;;3.83;3.57;;;16.10;65.60;;;;;;5074491;28;20194;-79
2022/06/01 03:25:14;;;;;;;3.80;3.50;;;16.00;65.50;;;;;;5076289;28;20578;-79
2022/06/01 03:27:40;;;;;;;3.70;3.40;;;16.10;64.70;;;;;;5082151;28;20214;-80
2022/06/01 03:30:10;;;;;;;4.17;3.77;;;16.30;64.40;;;;;;5069810;28;20212;-79
2022/06/01 03:32:36;;;;;;;4.20;3.80;;;16.10;65.10;;;;;;5071962;28;20201;-79
2022/06/01 03:35:03;;;;;;;5.00;3.50;;;16.00;65.60;;;;;;5068332;28;20285;-80
2022/06/01 03:37:28;;;;;;;3.73;3.50;;;16.00;65.10;;;;;;5069844;28;20180;-79
2022/06/01 03:39:54;;;;;;;3.97;3.67;;;16.20;64.10;;;;;;5077113;28;20203;-81
2022/06/01 03:42:19;;;;;;;3.80;3.50;;;16.30;63.30;;;;;;5069818;28;20676;-82
2022/06/01 03:47:31;;;;;;;3.83;3.53;;;16.40;62.80;;;;;;5081206;28;20195;-81
2022/06/01 03:49:57;;;;;;;3.70;3.40;;;16.40;62.60;;;;;;5083455;28;20572;-82
2022/06/01 03:52:22;;;;;;;4.03;3.73;;;16.40;62.20;;;;;;5070959;28;20200;-77
2022/06/01 03:54:48;;;;;;;3.50;3.20;;;16.40;62.20;;;;;;5074564;28;20203;-78
2022/06/01 03:57:14;;;;;;;4.33;3.93;;;16.50;61.70;;;;;;5076623;28;20205;-81
2022/06/01 03:59:39;;;;;;;4.07;3.67;;;16.60;61.70;;;;;;5065701;28;20195;-82
2022/06/01 04:02:06;;;;;;;5.23;4.07;;;16.60;61.60;;;;;;5084977;28;20222;-81
2022/06/01 04:04:33;;;;;;;4.40;4.07;;;16.60;61.80;;;;;;5069150;28;20202;-76
2022/06/01 04:06:59;;;;;;;4.47;3.93;;;16.60;62.20;;;;;;5067561;28;20188;-80
2022/06/01 04:09:25;;;;;;;4.20;3.80;;;16.60;62.10;;;;;;5073586;28;20203;-82
2022/06/01 04:11:51;;;;;;;4.43;3.60;;;16.60;62.30;;;;;;5079203;28;20382;-81
2022/06/01 04:14:20;;;;;;;4.07;3.67;;;16.60;62.20;;;;;;5077930;28;20195;-78
2022/06/01 04:16:47;;;;;;;7.73;3.97;;;16.50;62.90;;;;;;5057629;28;20205;-79
2022/06/01 04:19:14;;;;;;;4.00;3.70;;;16.50;63.40;;;;;;5075638;28;20184;-79
2022/06/01 04:21:42;;;;;;;5.63;4.30;;;16.30;63.70;;;;;;5083548;28;20234;-81
2022/06/01 04:24:16;;;;;;;4.43;4.00;;;16.00;65.00;;;;;;5075644;28;20223;-81
2022/06/01 04:26:42;;;;;;;5.33;3.90;;;15.60;66.30;;;;;;5071820;28;20189;-81
2022/06/01 04:29:08;;;;;;;5.87;4.20;;;15.20;67.80;;;;;;5079416;28;20193;-82
2022/06/01 04:31:34;;;;;;;4.80;4.20;;;15.00;68.80;;;;;;5069943;28;20211;-77
2022/06/01 04:34:00;;;;;;;4.40;4.00;;;15.00;69.30;;;;;;5065251;28;20196;-79
2022/06/01 04:36:26;;;;;;;5.13;4.10;;;14.90;69.50;;;;;;5072991;28;20186;-81
2022/06/01 04:38:52;;;;;;;4.40;4.00;;;14.80;70.30;;;;;;5072420;28;20194;-79
2022/06/01 04:41:17;;;;;;;4.27;3.97;;;15.00;69.70;;;;;;5073370;28;20214;-80
2022/06/01 04:43:43;;;;;;;4.20;3.80;;;15.00;70.00;;;;;;5077118;28;20183;-81
2022/06/01 04:46:09;;;;;;;3.53;3.23;;;15.10;69.70;;;;;;5075376;28;20217;-81
2022/06/01 04:48:35;;;;;;;4.13;3.73;;;15.20;69.10;;;;;;5073311;28;20673;-82
2022/06/01 04:51:01;;;;;;;6.90;4.43;;;15.20;68.70;;;;;;5075167;28;20218;-79
2022/06/01 04:53:28;;;;;;;11.17;4.50;;;15.30;68.80;;;;;;5055333;28;20230;-79
2022/06/01 04:55:53;;;;;;;6.37;4.07;;;15.40;68.80;;;;;;5070446;28;20710;-78
2022/06/01 04:58:19;;;;;;;4.20;3.80;;;15.40;68.90;;;;;;5077319;28;20209;-82
2022/06/01 05:00:47;;;;;;;5.57;3.93;;;15.40;68.60;;;;;;5076796;28;20227;-79
2022/06/01 05:03:13;;;;;;;4.50;4.10;;;15.40;68.60;;;;;;5079973;28;20195;-77
2022/06/01 05:05:39;;;;;;;6.57;3.87;;;15.30;69.50;;;;;;5075308;28;20192;-79
2022/06/01 05:08:10;;;;;;;6.70;4.33;;;15.40;69.40;;;;;;5071190;28;20184;-79
2022/06/01 05:10:36;;;;;;;6.50;4.50;;;15.50;69.90;;;;;;5060481;28;20215;-79
2022/06/01 05:13:03;;;;;;;4.47;3.70;;;15.60;68.90;;;;;;5075584;28;20228;-80
2022/06/01 05:15:28;;;;;;;4.67;4.27;;;15.70;69.10;;;;;;5076950;28;20900;-80
2022/06/01 05:17:54;;;;;;;6.33;4.20;;;15.70;69.20;;;;;;5080381;28;20190;-80
2022/06/01 05:20:20;;;;;;;7.00;4.53;;;15.60;68.80;;;;;;5081319;28;20232;-79
2022/06/01 05:22:46;;;;;;;7.13;4.27;;;15.60;68.10;;;;;;5088304;28;20200;-78
2022/06/01 05:25:11;;;;;;;4.97;4.37;;;15.70;69.00;;;;;;5076058;28;20191;-78
2022/06/01 05:27:38;;;;;;;4.40;4.00;;;15.70;67.60;;;;;;5078047;28;20179;-79
2022/06/01 05:30:06;;;;;;;4.20;3.77;;;15.70;68.20;;;;;;5058086;28;20195;-79
2022/06/01 05:32:32;;;;;;;4.63;3.80;;;15.60;67.60;;;;;;5076604;28;20189;-81
2022/06/01 05:34:58;;;;;;;4.80;4.40;;;15.50;69.60;;;;;;5071900;28;20203;-79
2022/06/01 05:37:24;;;;;;;4.53;4.23;;;15.50;69.30;;;;;;5079774;28;20201;-78
2022/06/01 05:39:49;;;;;;;4.37;3.97;;;15.60;69.30;;;;;;5077504;28;20190;-80
2022/06/01 05:42:15;;;;;;;4.97;4.20;;;15.50;69.70;;;;;;5057401;28;20834;-80
2022/06/01 05:44:41;;;;;;;5.87;4.50;;;15.70;70.30;;;;;;5080217;28;20595;-80
2022/06/01 05:47:06;;;;;;;5.43;4.30;;;15.80;70.30;;;;;;5080283;28;20447;-80
2022/06/01 05:49:32;;;;;;;5.80;4.67;;;15.80;70.70;;;;;;5080202;28;20251;-79
2022/06/01 05:51:58;;;;;;;6.37;4.27;;;15.90;71.70;;;;;;5080725;28;20563;-79
2022/06/01 05:54:24;;;;;;;6.70;4.50;;;16.00;71.70;;;;;;5082839;28;20213;-79
2022/06/01 05:56:50;;;;;;;5.00;4.60;;;16.00;71.40;;;;;;5069420;28;20673;-80
2022/06/01 05:59:15;;;;;;;6.27;4.83;;;16.10;71.70;;;;;;5087455;28;20195;-81
2022/06/01 06:01:41;;;;;;;7.13;4.97;;;16.30;71.60;;;;;;5079355;28;20225;-80
2022/06/01 06:04:07;;;;;;;6.00;4.27;;;16.30;70.90;;;;;;5077119;28;20216;-80
2022/06/01 06:06:33;;;;;;;6.57;5.50;;;16.30;70.90;;;;;;5078604;28;20195;-78
2022/06/01 06:09:05;;;;;;;5.30;4.80;;;16.20;71.60;;;;;;5080167;28;20247;-80
2022/06/01 06:11:37;;;;;;;6.40;5.00;;;16.20;71.50;;;;;;5078217;28;20758;-80
2022/06/01 06:14:04;;;;;;;5.20;4.80;;;16.10;71.70;;;;;;5090802;28;20180;-78
2022/06/01 06:16:34;;;;;;;8.77;5.20;;;16.20;73.10;;;;;;5081164;28;20206;-79
2022/06/01 06:19:01;;;;;;;5.47;4.83;;;16.10;72.90;;;;;;5080970;28;20231;-78
2022/06/01 06:21:29;;;;;;;5.80;5.20;;;16.10;72.80;;;;;;5080342;28;20309;-79
2022/06/01 06:24:07;;;;;;;6.33;5.70;;;16.20;74.00;;;;;;5061769;28;20195;-79
2022/06/01 06:26:34;;;;;;;5.17;4.77;;;16.30;73.00;;;;;;5080495;28;20186;-78
2022/06/01 06:29:02;;;;;;;4.97;4.50;;;16.40;73.90;;;;;;5081714;28;20210;-79
2022/06/01 06:31:28;;;;;;;6.90;5.97;;;16.40;74.40;;;;;;5081420;28;20213;-82
2022/06/01 06:33:55;;;;;;;5.97;5.37;;;16.50;74.70;;;;;;5080378;28;20210;-80
2022/06/01 06:36:21;;;;;;;6.13;5.27;;;16.60;73.30;;;;;;5080382;28;20221;-78
2022/06/01 06:38:46;;;;;;;6.03;5.47;;;16.60;73.10;;;;;;5082063;28;20191;-80
2022/06/01 06:41:12;;;;;;;6.07;5.40;;;16.80;74.50;;;;;;5078247;28;20227;-78
2022/06/01 06:43:39;;;;;;;5.37;4.87;;;16.80;72.30;;;;;;5077791;28;20274;-78
2022/06/01 06:46:09;;;;;;;6.50;5.10;;;16.90;73.50;;;;;;5076924;28;20202;-78
2022/06/01 06:48:35;;;;;;;6.10;5.50;;;17.10;72.80;;;;;;5074416;28;20668;-78
2022/06/01 06:51:01;;;;;;;6.03;4.90;;;17.30;71.20;;;;;;5075712;28;20207;-79
2022/06/01 06:53:28;;;;;;;5.90;5.17;;;17.40;71.90;;;;;;5076271;28;20709;-78
2022/06/01 06:55:54;;;;;;;5.73;4.80;;;17.40;71.20;;;;;;5075770;28;20341;-79
2022/06/01 06:58:21;;;;;;;8.53;4.40;;;17.40;70.70;;;;;;5077360;28;20894;-78
2022/06/01 07:00:46;;;;;;;6.37;4.77;;;17.60;71.40;;;;;;5076068;28;20240;-78
2022/06/01 07:03:13;;;;;;;5.67;4.70;;;17.80;66.80;;;;;;5061288;28;20197;-78
2022/06/01 07:08:25;;;;;;;6.17;3.90;;;17.90;64.10;;;;;;5074421;28;20280;-81
2022/06/01 07:10:52;;;;;;;5.03;3.70;;;17.90;63.50;;;;;;5074487;28;20211;-79
2022/06/01 07:13:17;;;;;;;7.30;3.70;;;18.00;60.10;;;;;;5074732;28;20180;-80
2022/06/01 07:15:43;;;;;;;3.90;3.40;;;18.10;60.20;;;;;;5073643;28;20187;-78
2022/06/01 07:18:09;;;;;;;5.20;3.53;;;18.30;56.80;;;;;;5075354;28;20192;-79
2022/06/01 07:20:35;;;;;;;5.70;3.80;;;18.50;57.00;;;;;;5073042;28;20220;-79
2022/06/01 07:23:01;;;;;;;4.53;3.53;;;18.40;55.10;;;;;;5074198;28;20191;-78
2022/06/01 07:25:28;;;;;;;5.33;3.20;;;18.50;53.10;;;;;;5073473;28;20187;-78
2022/06/01 07:27:55;;;;;;;3.87;3.40;;;18.60;53.50;;;;;;5074527;28;20187;-78
2022/06/01 07:30:20;;;;;;;4.17;3.40;;;18.60;52.80;;;;;;5055805;28;20220;-78
2022/06/01 07:32:47;;;;;;;5.37;3.03;;;18.70;54.70;;;;;;5073498;28;20199;-80
2022/06/01 07:35:14;;;;;;;5.40;3.07;;;18.80;53.50;;;;;;5055037;28;20201;-80
2022/06/01 07:43:10;;;;;;;4.07;3.10;;;19.00;47.60;;;;;;5074055;28;20206;-78
2022/06/01 07:45:42;;;;;;;4.13;3.07;;;19.00;48.20;;;;;;5074026;28;20339;-80
2022/06/01 07:48:08;;;;;;;4.77;3.20;;;19.00;50.90;;;;;;5073492;28;20184;-79
2022/06/01 07:50:35;;;;;;;3.20;2.67;;;19.00;48.90;;;;;;5073745;28;20287;-79
2022/06/01 07:53:03;;;;;;;3.20;2.90;;;19.20;48.30;;;;;;5073307;28;20674;-79
2022/06/01 07:55:29;;;;;;;3.78;3.13;;;19.40;47.70;;;;;;5073695;28;20213;-81
2022/06/01 07:57:55;;;;;;;3.13;2.83;;;19.60;47.60;;;;;;5073341;28;20677;-80
2022/06/01 08:00:21;;;;;;;3.40;3.10;;;19.60;48.60;;;;;;5073750;28;20225;-80
2022/06/01 08:02:47;;;;;;;5.85;3.40;;;19.60;48.70;;;;;;5073619;28;20175;-78
2022/06/01 08:05:15;;;;;;;6.28;3.50;;;19.70;47.70;;;;;;5073220;28;20211;-80
2022/06/01 08:07:42;;;;;;;4.18;2.88;;;19.70;48.40;;;;;;5073059;28;20184;-80
2022/06/01 08:10:09;;;;;;;4.10;2.97;;;19.90;47.70;;;;;;5056369;28;20219;-80
2022/06/01 08:15:20;;;;;;;6.88;3.05;;;20.20;46.00;;;;;;5074047;28;20240;-79
2022/06/01 08:17:47;;;;;;;5.53;3.08;;;20.40;44.70;;;;;;5072844;28;20642;-79
2022/06/01 08:20:13;;;;;;;4.93;2.78;;;20.40;43.40;;;;;;5073231;28;20239;-80
2022/06/01 08:22:40;;;;;;;2.90;2.70;;;20.40;44.70;;;;;;5073558;28;20183;-80
2022/06/01 08:25:07;;;;;;;6.70;2.95;;;20.50;43.60;;;;;;5038609;28;20180;-80
2022/06/01 08:27:33;;;;;;;4.28;2.70;;;20.50;42.70;;;;;;5071338;28;20226;-80
2022/06/01 08:29:59;;;;;;;11.00;3.65;;;20.70;43.10;;;;;;5070133;28;20241;-80
2022/06/01 08:32:25;;;;;;;4.88;3.03;;;20.80;42.20;;;;;;5054055;28;20187;-81
2022/06/01 08:34:51;;;;;;;3.38;3.03;;;20.80;42.60;;;;;;5071556;28;20199;-79
2022/06/01 08:37:16;;;;;;;3.83;3.00;;;20.80;42.40;;;;;;5071455;28;20230;-79
2022/06/01 08:39:42;;;;;;;3.70;3.13;;;21.00;44.40;;;;;;5072664;28;20700;-79
2022/06/01 08:42:13;;;;;;;5.50;2.97;;;21.10;42.00;;;;;;5073854;28;20207;-80
2022/06/01 08:44:41;;;;;;;7.45;3.45;;;21.20;41.80;;;;;;5073340;28;20185;-80
2022/06/01 08:47:26;;;;;;;3.40;2.72;;;21.30;40.20;;;;;;5056949;28;20197;-80
2022/06/01 08:49:52;;;;;;;3.38;2.60;;;21.50;39.60;;;;;;5073420;28;20186;-80
2022/06/01 08:52:21;;;;;;;3.88;2.83;;;21.60;38.50;;;;;;5070481;28;20287;-79
2022/06/01 08:54:47;;;;;;;4.13;2.72;;;21.80;39.10;;;;;;5073886;28;20193;-79
2022/06/01 08:57:23;;;;;;;3.17;2.50;;;21.90;39.10;;;;;;5073370;28;20199;-80
2022/06/01 09:00:00;;;;;;;4.03;2.78;;;22.00;39.20;;;;;;5073027;28;20240;-80
2022/06/01 09:02:26;;;;;;;3.10;2.42;;;22.10;38.40;;;;;;5071750;28;20247;-80
2022/06/01 09:05:06;;;;;;;5.72;2.92;;;22.00;38.70;;;;;;5072464;28;20186;-80
2022/06/01 09:07:45;;;;;;;3.30;3.00;;;22.20;38.70;;;;;;5073410;28;20186;-80
2022/06/01 09:10:16;;;;;;;3.92;2.80;;;22.10;39.30;;;;;;5073688;28;20206;-80
2022/06/01 09:12:44;;;;;;;3.80;3.03;;;22.10;39.10;;;;;;5072545;28;20187;-80
2022/06/01 09:15:17;;;;;;;4.18;2.58;;;22.10;38.20;;;;;;5054474;28;20267;-79
2022/06/01 09:17:44;;;;;;;5.50;2.85;;;22.20;38.40;;;;;;5073049;28;20217;-79
2022/06/01 09:23:01;;;;;;;5.22;2.75;;;22.40;38.30;;;;;;5073485;28;20187;-80
2022/06/01 09:25:32;;;;;;;4.10;2.50;;;22.10;38.40;;;;;;5056089;28;20202;-80
2022/06/01 09:28:02;;;;;;;4.22;2.72;;;22.00;38.40;;;;;;5072772;28;20189;-80
2022/06/01 09:30:36;;;;;;;4.45;3.25;;;22.10;39.60;;;;;;5055405;28;20212;-80
2022/06/01 09:33:11;;;;;;;2.90;2.70;;;22.20;38.90;;;;;;5071599;28;20193;-80
2022/06/01 09:35:56;;;;;;;2.90;2.60;;;22.30;38.00;;;;;;5073245;28;20250;-80
2022/06/01 09:38:36;;;;;;;3.35;2.67;;;22.40;37.40;;;;;;5071739;28;20189;-80
2022/06/01 09:41:23;;;;;;;3.70;3.08;;;22.30;38.80;;;;;;5071309;28;20628;-80
2022/06/01 09:43:57;;;;;;;4.68;2.88;;;22.50;37.70;;;;;;5071729;28;20183;-80
2022/06/01 09:46:32;;;;;;;8.15;2.72;;;22.80;37.60;;;;;;5072062;28;20236;-80
2022/06/01 09:48:58;;;;;;;2.85;2.50;;;23.10;37.30;;;;;;5074699;28;20181;-80
2022/06/01 09:51:25;;;;;;;6.85;3.03;;;22.80;37.50;;;;;;5075842;28;20221;-79
2022/06/01 09:54:07;;;;;;;3.63;2.80;;;22.90;38.40;;;;;;5075345;28;20195;-80
2022/06/01 09:56:40;;;;;;;3.90;2.70;;;23.10;38.40;;;;;;5075372;28;20262;-80
2022/06/01 10:07:31;;;;;;;2.90;2.70;;;23.20;36.60;;;;;;5061069;28;20222;-80
2022/06/01 10:10:04;;;;;;;2.70;2.45;;;23.60;36.80;;;;;;5075715;28;20191;-80
2022/06/01 10:12:51;;;;;;;6.00;2.60;;;23.90;35.90;;;;;;5076203;28;20536;-80
2022/06/01 10:15:43;;;;;;;3.22;2.92;;;24.50;36.00;;;;;;5076058;28;20504;-80
2022/06/01 10:18:13;;;;;;;2.90;2.60;;;24.70;35.80;;;;;;5071475;28;20202;-80
2022/06/01 10:20:55;;;;;;;4.82;2.90;;;24.90;34.50;;;;;;5075414;28;20219;-79
2022/06/01 10:23:52;;;;;;;3.22;2.90;;;25.10;34.00;;;;;;5057583;28;20215;-79
2022/06/01 10:26:20;;;;;;;3.28;2.70;;;25.00;35.00;;;;;;5075411;28;20633;-80
2022/06/01 10:28:59;;;;;;;3.33;2.60;;;25.20;34.30;;;;;;5075510;28;20658;-80
2022/06/01 10:31:50;;;;;;;2.95;2.72;;;25.30;34.50;;;;;;5074536;28;20252;-80
2022/06/01 10:34:29;;;;;;;3.38;2.63;;;25.30;34.20;;;;;;5061253;28;20207;-80
2022/06/01 10:37:07;;;;;;;3.72;2.60;;;24.80;35.30;;;;;;5073928;28;20180;-80
2022/06/01 10:39:41;;;;;;;3.90;3.50;;;24.70;35.10;;;;;;5072035;28;20187;-81
2022/06/01 10:45:22;;;;;;;4.28;3.05;;;24.60;34.60;;;;;;5072732;28;20236;-80
2022/06/01 10:48:11;;;;;;;3.05;2.85;;;24.50;35.20;;;;;;5072944;28;20261;-80
2022/06/01 10:50:43;;;;;;;4.75;3.00;;;24.80;34.70;;;;;;5063383;28;20222;-80
2022/06/01 10:53:34;;;;;;;2.72;2.58;;;24.90;34.50;;;;;;5073846;28;20694;-81
2022/06/01 10:56:00;;;;;;;3.83;2.85;;;24.90;35.70;;;;;;5078090;28;20176;-80
2022/06/01 10:58:28;;;;;;;3.58;2.90;;;25.10;37.00;;;;;;5077622;28;20218;-80
2022/06/01 11:01:41;;;;;;;3.55;2.67;;;24.50;35.50;;;;;;5076472;28;20222;-82
2022/06/01 11:04:32;;;;;;;21.38;3.80;;;24.60;34.20;;;;;;5076457;28;20203;-79
2022/06/01 11:07:09;;;;;;;4.72;2.60;;;24.60;34.00;;;;;;5075432;28;20662;-80
2022/06/01 11:09:43;;;;;;;4.65;2.20;;;24.90;33.30;;;;;;5076246;28;20199;-80
2022/06/01 11:12:32;;;;;;;4.03;2.67;;;25.30;32.60;;;;;;5075139;28;20821;-79
2022/06/01 11:15:13;;;;;;;2.70;2.50;;;25.40;31.80;;;;;;5076126;28;20262;-80
2022/06/01 11:17:53;;;;;;;4.65;2.80;;;26.00;32.40;;;;;;5074207;28;20221;-80
2022/06/01 11:20:33;;;;;;;4.53;2.63;;;26.00;32.10;;;;;;5075966;28;20222;-80
2022/06/01 11:23:21;;;;;;;4.45;2.65;;;26.30;31.50;;;;;;5074242;28;20201;-80
2022/06/01 11:26:13;;;;;;;3.35;2.47;;;26.70;30.00;;;;;;5074405;28;20190;-80
2022/06/01 11:29:12;;;;;;;4.45;2.70;;;26.30;29.90;;;;;;5074121;28;20177;-79
2022/06/01 11:31:39;;;;;;;4.53;2.53;;;25.80;29.50;;;;;;5073948;28;20597;-80
2022/06/01 11:34:33;;;;;;;3.03;2.75;;;25.10;31.80;;;;;;5073474;28;20646;-80
2022/06/01 11:37:09;;;;;;;5.43;2.40;;;24.60;32.20;;;;;;5076176;28;20202;-80
2022/06/01 11:39:40;;;;;;;5.85;2.90;;;25.50;31.50;;;;;;5073302;28;20217;-80
2022/06/01 11:42:22;;;;;;;2.60;2.50;;;26.10;30.40;;;;;;5071585;28;20214;-79
2022/06/01 11:45:01;;;;;;;2.65;2.22;;;26.70;29.80;;;;;;5072564;28;20330;-80
2022/06/01 11:47:34;;;;;;;9.15;3.00;;;27.20;29.70;;;;;;5073792;28;20229;-80
2022/06/01 11:50:24;;;;;;;2.55;2.20;;;27.30;27.50;;;;;;5073710;28;20429;-78
2022/06/01 11:53:13;;;;;;;2.75;2.20;;;27.80;27.20;;;;;;5071436;28;20199;-78
2022/06/01 11:55:38;;;;;;;4.07;2.65;;;27.90;27.30;;;;;;5070931;28;20184;-78
2022/06/01 11:58:33;;;;;;;2.35;2.25;;;27.90;27.70;;;;;;5072892;28;20210;-81
2022/06/01 12:01:34;;;;;;;3.60;2.47;;;27.70;26.90;;;;;;5054600;28;20243;-80
2022/06/01 12:04:29;;;;;;;4.28;2.40;;;27.00;27.30;;;;;;5074061;28;20195;-80
2022/06/01 12:07:13;;;;;;;3.17;2.30;;;27.20;27.30;;;;;;5051492;28;20717;-80
2022/06/01 12:09:48;;;;;;;3.30;2.38;;;26.80;26.70;;;;;;5075282;28;20266;-81
2022/06/01 12:12:57;;;;;;;3.92;2.35;;;26.20;28.80;;;;;;5074487;28;20225;-81
2022/06/01 12:15:38;;;;;;;3.35;2.60;;;26.00;27.80;;;;;;5034544;28;20203;-79
2022/06/01 12:18:15;;;;;;;2.60;2.40;;;25.80;28.70;;;;;;5071504;28;20274;-80
2022/06/01 12:20:47;;;;;;;3.63;2.40;;;25.40;28.40;;;;;;5072718;28;20226;-78
2022/06/01 12:28:51;;;;;;;9.23;2.95;;;26.30;27.50;;;;;;5072144;28;20732;-78
2022/06/01 12:32:00;;;;;;;4.38;2.58;;;26.60;27.20;;;;;;5053457;28;20211;-78
2022/06/01 12:34:33;;;;;;;3.00;2.20;;;26.20;28.00;;;;;;5055470;28;20206;-79
2022/06/01 12:37:08;;;;;;;5.93;3.00;;;26.40;27.30;;;;;;5070940;28;20274;-78
2022/06/01 12:39:38;;;;;;;3.78;2.50;;;26.60;27.70;;;;;;5072123;28;20191;-79
2022/06/01 12:42:15;;;;;;;5.25;1.95;;;26.40;29.10;;;;;;5072125;28;20263;-79
2022/06/01 12:44:44;;;;;;;6.65;2.63;;;26.20;28.40;;;;;;5070383;28;20183;-78
2022/06/01 12:47:31;;;;;;;2.30;2.20;;;26.80;27.40;;;;;;5046417;28;20279;-78
2022/06/01 12:50:04;;;;;;;2.97;2.33;;;27.10;28.20;;;;;;5066177;28;20236;-77
2022/06/01 12:52:31;;;;;;;4.43;2.35;;;27.60;26.80;;;;;;5068081;28;20198;-79
2022/06/01 12:55:05;;;;;;;5.32;2.38;;;27.60;26.60;;;;;;5045062;28;20207;-79
2022/06/01 12:57:37;;;;;;;4.28;2.50;;;27.50;26.60;;;;;;5065037;28;20202;-78
2022/06/01 13:00:02;;;;;;;4.55;2.33;;;27.50;26.30;;;;;;5064475;28;20186;-79
2022/06/01 13:02:32;;;;;;;2.85;2.40;;;27.60;26.60;;;;;;5067293;28;20278;-77
2022/06/01 13:04:57;;;;;;;4.10;2.25;;;27.50;25.90;;;;;;5070229;28;20188;-79
2022/06/01 13:07:35;;;;;;;5.82;2.70;;;27.70;26.10;;;;;;5067320;28;20191;-78
2022/06/01 13:10:11;;;;;;;5.20;2.85;;;27.60;26.70;;;;;;5075168;28;20241;-79
2022/06/01 13:12:37;;;;;;;3.65;2.40;;;28.00;26.30;;;;;;5064519;28;20183;-79
2022/06/01 13:15:18;;;;;;;2.58;2.38;;;27.80;26.00;;;;;;5070133;28;20183;-78
2022/06/01 13:17:58;;;;;;;2.30;2.20;;;28.00;26.40;;;;;;5071199;28;20228;-79
2022/06/01 13:20:35;;;;;;;4.57;2.72;;;28.20;26.40;;;;;;5067161;28;20259;-79
2022/06/01 13:23:04;;;;;;;2.95;2.38;;;28.50;25.50;;;;;;5069626;28;20258;-77
2022/06/01 13:25:33;;;;;;;4.38;2.45;;;28.90;25.60;;;;;;5056329;28;20188;-78
2022/06/01 13:27:59;;;;;;;10.35;3.10;;;29.50;26.00;;;;;;5067502;28;20184;-77
2022/06/01 13:30:29;;;;;;;5.28;2.60;;;28.90;25.20;;;;;;5062415;28;20257;-79
2022/06/01 13:32:57;;;;;;;3.72;2.42;;;28.90;25.90;;;;;;5073566;28;20754;-79
2022/06/01 13:35:31;;;;;;;2.45;2.35;;;28.50;25.60;;;;;;5069173;28;20208;-79
2022/06/01 13:37:59;;;;;;;3.72;2.53;;;28.40;25.90;;;;;;5070574;28;20175;-79
2022/06/01 13:40:35;;;;;;;3.42;2.42;;;28.30;26.20;;;;;;5068504;28;20204;-80
2022/06/01 13:43:03;;;;;;;3.47;2.50;;;28.50;26.40;;;;;;5073496;28;20738;-80
2022/06/01 13:45:44;;;;;;;4.82;2.55;;;27.90;26.10;;;;;;5076982;28;20184;-79